F/V Renaissance II — FMEW — position and weather

sailwx.info

Track history (hours):
 
Tides and Currents Weather Stations Pressure Air Temp Water Temp Dewpoint Dewpoint Depression Visibility Wind Speed Wind Dir Waves Ship Positions

F/V Renaissance II

Last reported at 2016-Feb-11 16:33 UTC. Time now 2016-Feb-11 17:03 UTC.
Position N 46°25' W 002°01'.

Length 18 m.

Type: Fishing. MMSI: 228216600.

Date/timePositionNaut miles runAvg speedWind from/ knotsBaromVisibWave heightAir tempDewpointWater temp
2016-Feb-11 16:33N 46°25' W 002°01'1 1.0
2016-Feb-11 15:24N 46°26' W 002°02'2 2.2
2016-Feb-11 14:34N 46°24' W 002°04'2 1.6
2016-Feb-11 13:33N 46°24' W 002°02'3 2.7
2016-Feb-11 12:34N 46°22' W 002°05'6 1.1
2016-Feb-11 06:34N 46°27' W 002°11'8 8.5
2016-Feb-11 05:34N 46°28' W 001°59'8 8.2
2016-Feb-11 04:33N 46°28' W 001°47'1 1.4
2016-Feb-11 03:34N 46°30' W 001°47'0 0.0
2016-Feb-11 02:33N 46°30' W 001°47'0 0.0
2016-Feb-11 01:34N 46°30' W 001°47'0 0.0
2016-Feb-11 00:34N 46°30' W 001°47'0 0.0
2016-Feb-10 23:33N 46°30' W 001°47'0 0.0
2016-Feb-10 22:34N 46°30' W 001°47'0 0.0
2016-Feb-10 21:33N 46°30' W 001°47'0 0.0
2016-Feb-10 20:33N 46°30' W 001°47'0 0.0
2016-Feb-10 19:34N 46°30' W 001°47'0 0.0
2016-Feb-10 18:34N 46°30' W 001°47'0 0.0
2016-Feb-10 17:34N 46°30' W 001°47'0 0.0
2016-Feb-10 16:33N 46°30' W 001°47'0 0.0
2016-Feb-10 15:33N 46°30' W 001°47'0 0.0
2016-Feb-10 14:34N 46°30' W 001°47'0 0.0
2016-Feb-10 13:34N 46°30' W 001°47'0 0.0
2016-Feb-10 12:33N 46°30' W 001°47'0 0.0
2016-Feb-10 11:34N 46°30' W 001°47'0 0.0
2016-Feb-10 10:33N 46°30' W 001°47'0 0.0
2016-Feb-10 09:33N 46°30' W 001°47'0 0.0
2016-Feb-10 08:34N 46°30' W 001°47'0 0.0
2016-Feb-10 07:33N 46°30' W 001°47'0 0.0
2016-Feb-10 06:34N 46°30' W 001°47'0 0.0
2016-Feb-10 05:33N 46°30' W 001°47'0 0.0
2016-Feb-10 04:34N 46°30' W 001°47'0 0.0
2016-Feb-10 03:34N 46°30' W 001°47'0 0.0
2016-Feb-10 02:34N 46°30' W 001°47'0 0.0
2016-Feb-10 01:34N 46°30' W 001°47'0 0.0
2016-Feb-10 00:34N 46°30' W 001°47'0 0.0
2016-Feb-09 23:34N 46°30' W 001°47'0 0.0
2016-Feb-09 22:34N 46°30' W 001°47'0 0.0
2016-Feb-09 21:33N 46°30' W 001°47'0 0.0
2016-Feb-09 20:34N 46°30' W 001°47'0 0.0
2016-Feb-09 19:34N 46°30' W 001°47'0 0.0
2016-Feb-09 18:34N 46°30' W 001°47'0 0.0
2016-Feb-09 17:33N 46°30' W 001°47'0 0.0
2016-Feb-09 16:34N 46°30' W 001°47'0 0.0
2016-Feb-09 15:33N 46°30' W 001°47'0 0.0
2016-Feb-09 14:34N 46°30' W 001°47'0 0.1
2016-Feb-09 13:34N 46°30' W 001°47'0 0.1
2016-Feb-09 12:34N 46°30' W 001°47'0 0.0
2016-Feb-09 11:33N 46°30' W 001°47'0 0.0
2016-Feb-09 10:34N 46°30' W 001°47'0 0.0
2016-Feb-09 09:34N 46°30' W 001°47'0 0.0
2016-Feb-09 08:33N 46°30' W 001°47'0 0.0
2016-Feb-09 07:34N 46°30' W 001°47'0 0.0
2016-Feb-09 06:34N 46°30' W 001°47'0 0.0
2016-Feb-09 05:33N 46°30' W 001°47'0 0.0
2016-Feb-09 04:34N 46°30' W 001°47'0 0.0
2016-Feb-09 03:34N 46°30' W 001°47'0 0.0
2016-Feb-09 02:34N 46°30' W 001°47'0 0.0
2016-Feb-09 01:34N 46°30' W 001°47'0 0.0
2016-Feb-09 00:33N 46°30' W 001°47'0 0.0
2016-Feb-08 23:33N 46°30' W 001°47'0 0.0
2016-Feb-08 22:34N 46°30' W 001°47'0 0.0
2016-Feb-08 21:34N 46°30' W 001°47'0 0.0
2016-Feb-08 20:33N 46°30' W 001°47'0 0.0
2016-Feb-08 19:34N 46°30' W 001°47'0 0.0
2016-Feb-08 18:33N 46°30' W 001°47'0 0.0
2016-Feb-08 17:34N 46°30' W 001°47'0 0.0
2016-Feb-08 16:33N 46°30' W 001°47'0 0.0
2016-Feb-08 15:34N 46°30' W 001°47'0 0.0
2016-Feb-08 14:33N 46°30' W 001°47'0 0.0
2016-Feb-08 13:34N 46°30' W 001°47'0 0.0
2016-Feb-08 12:34N 46°30' W 001°47'0 0.0
2016-Feb-08 11:34N 46°30' W 001°47'0 0.0
2016-Feb-08 10:33N 46°30' W 001°47'0 0.0
2016-Feb-08 09:33N 46°30' W 001°47'0 0.0
2016-Feb-08 08:34N 46°30' W 001°47'0 0.0
2016-Feb-08 07:34N 46°30' W 001°47'0 0.0
2016-Feb-06 20:34N 46°30' W 001°47'0 0.0
2016-Feb-06 19:33N 46°30' W 001°47'0 0.0
2016-Feb-06 18:34N 46°30' W 001°47'0 0.0
2016-Feb-06 17:34N 46°30' W 001°47'0 0.0
2016-Feb-06 16:33N 46°30' W 001°47'0 0.0
2016-Feb-06 15:33N 46°30' W 001°47'0 0.0
2016-Feb-06 14:34N 46°30' W 001°47'0 0.0
2016-Feb-06 13:33N 46°30' W 001°47'0 0.0
2016-Feb-06 12:34N 46°30' W 001°47'0 0.0
2016-Feb-06 11:34N 46°30' W 001°47'0 0.0
2016-Feb-06 10:33N 46°30' W 001°47'0 0.0
2016-Feb-06 09:33N 46°30' W 001°47'0 0.0
2016-Feb-06 08:33N 46°30' W 001°47'0 0.0
2016-Feb-06 07:34N 46°30' W 001°47'0 0.0
2016-Feb-06 06:34N 46°30' W 001°47'0 0.0
2016-Feb-06 05:34N 46°30' W 001°47'0 0.0
2016-Feb-06 04:34N 46°30' W 001°47'0 0.0
2016-Feb-06 03:34N 46°30' W 001°47'0 0.0
2016-Feb-06 02:33N 46°30' W 001°47'0 0.0
2016-Feb-06 01:33N 46°30' W 001°47'0 0.0
2016-Feb-06 00:34N 46°30' W 001°47'0 0.0
2016-Feb-05 23:34N 46°30' W 001°47'0 0.0
2016-Feb-05 22:34N 46°30' W 001°47'0 0.0
2016-Feb-05 21:33N 46°30' W 001°47'0 0.0
2016-Feb-05 20:33N 46°30' W 001°47'0 0.0
2016-Feb-05 19:33N 46°30' W 001°47'0 0.0
2016-Feb-05 18:34N 46°30' W 001°47'0 0.0
2016-Feb-05 17:34N 46°30' W 001°47'0 0.2
2016-Feb-05 16:33N 46°30' W 001°48'3 3.1
2016-Feb-05 15:34N 46°27' W 001°50'6 5.6
2016-Feb-05 14:34N 46°24' W 001°57'6 5.8
2016-Feb-05 13:30N 46°20' W 002°04'6 0.8
2016-Feb-05 05:33N 46°20' W 001°55'9 8.9
2016-Feb-05 04:34N 46°27' W 001°48'3 2.6
2016-Feb-05 03:33N 46°30' W 001°48'0 0.0
2016-Feb-05 02:34N 46°30' W 001°48'0 0.0
2016-Feb-05 01:34N 46°30' W 001°48'0 0.0
2016-Feb-05 00:33N 46°30' W 001°48'0 0.0
2016-Feb-04 23:34N 46°30' W 001°48'0 0.0
2016-Feb-04 22:34N 46°30' W 001°48'0 0.0
2016-Feb-04 21:33N 46°30' W 001°48'0 0.0
2016-Feb-04 20:34N 46°30' W 001°48'0 0.0
2016-Feb-04 19:33N 46°30' W 001°48'0 0.0
2016-Feb-04 18:33N 46°30' W 001°48'0 0.0
2016-Feb-04 17:34N 46°30' W 001°48'0 0.0
2016-Feb-04 16:34N 46°30' W 001°48'0 0.0
2016-Feb-04 15:33N 46°30' W 001°48'18 5.6
2016-Feb-04 12:23N 46°31' W 002°14'1 1.1
2016-Feb-04 11:33N 46°32' W 002°15'3 0.5
2016-Feb-04 06:33N 46°34' W 002°13'8 8.2
2016-Feb-04 05:33N 46°32' W 002°02'8 8.2
2016-Feb-04 04:33N 46°29' W 001°51'3 2.5
2016-Feb-04 03:33N 46°30' W 001°47'0 0.0
2016-Feb-04 02:33N 46°30' W 001°47'0 0.0
2016-Feb-04 01:33N 46°30' W 001°47'0 0.0
2016-Feb-04 00:33N 46°30' W 001°47'0 0.0
2016-Feb-03 23:33N 46°30' W 001°47'0 0.0
2016-Feb-03 22:33N 46°30' W 001°47'0 0.0
2016-Feb-03 21:33N 46°30' W 001°47'0 0.0
2016-Feb-03 20:33N 46°30' W 001°47'0 0.0
2016-Feb-03 19:33N 46°30' W 001°47'0 0.0
2016-Feb-03 18:33N 46°30' W 001°47'2 1.5
2016-Feb-03 17:33N 46°28' W 001°48'9 8.9
2016-Feb-03 16:33N 46°28' W 002°01'6 6.1
2016-Feb-03 15:33N 46°28' W 002°10'0 0.3
2016-Feb-03 14:33N 46°28' W 002°10'2 0.3
2016-Feb-03 06:33N 46°27' W 002°13'8 7.7
2016-Feb-03 05:33N 46°28' W 002°02'8 8.0
2016-Feb-03 04:33N 46°28' W 001°50'2 2.4
2016-Feb-03 03:33N 46°30' W 001°48'0 0.0
2016-Feb-03 02:33N 46°30' W 001°48'0 0.0
2016-Feb-03 01:33N 46°30' W 001°48'0 0.0
2016-Feb-03 00:33N 46°30' W 001°48'0 0.0
2016-Feb-02 23:33N 46°30' W 001°48'0 0.0
2016-Feb-02 22:33N 46°30' W 001°48'0 0.0
2016-Feb-02 21:33N 46°30' W 001°48'0 0.0
2016-Feb-02 20:33N 46°30' W 001°48'0 0.0
2016-Feb-02 19:33N 46°30' W 001°48'0 0.0
2016-Feb-02 18:33N 46°30' W 001°48'0 0.0
2016-Feb-02 17:33N 46°30' W 001°48'2 1.8
2016-Feb-02 16:33N 46°28' W 001°48'8 8.3
2016-Feb-02 15:33N 46°24' W 001°58'8 8.2
2016-Feb-02 14:33N 46°20' W 002°09'5 4.4
2016-Feb-02 13:29N 46°17' W 002°15'5 0.6
2016-Feb-02 05:33N 46°19' W 002°08'8 8.0
2016-Feb-02 04:33N 46°23' W 001°58'8 8.2
2016-Feb-02 03:33N 46°28' W 001°48'2 2.1
2016-Feb-02 02:33N 46°30' W 001°48'0 0.0
2016-Feb-01 21:14N 46°30' W 001°48'  
Track history (hours):
 
Tides and Currents Weather Stations Pressure Air Temp Water Temp Dewpoint Dewpoint Depression Visibility Wind Speed Wind Dir Waves Ship Positions

F/V Renaissance II

Last reported at 2016-Feb-11 16:33 UTC. Time now 2016-Feb-11 17:03 UTC.
Position N 46°25' W 002°01'.

Length 18 m.

Type: Fishing. MMSI: 228216600.

Date/timePositionNaut miles runAvg speedWind from/ knotsBaromVisibWave heightAir tempDewpointWater temp
2016-Feb-11 16:33N 46°25' W 002°01'1 1.0
2016-Feb-11 15:24N 46°26' W 002°02'2 2.2
2016-Feb-11 14:34N 46°24' W 002°04'2 1.6
2016-Feb-11 13:33N 46°24' W 002°02'3 2.7
2016-Feb-11 12:34N 46°22' W 002°05'6 1.1
2016-Feb-11 06:34N 46°27' W 002°11'8 8.5
2016-Feb-11 05:34N 46°28' W 001°59'8 8.2
2016-Feb-11 04:33N 46°28' W 001°47'1 1.4
2016-Feb-11 03:34N 46°30' W 001°47'0 0.0
2016-Feb-11 02:33N 46°30' W 001°47'0 0.0
2016-Feb-11 01:34N 46°30' W 001°47'0 0.0
2016-Feb-11 00:34N 46°30' W 001°47'0 0.0
2016-Feb-10 23:33N 46°30' W 001°47'0 0.0
2016-Feb-10 22:34N 46°30' W 001°47'0 0.0
2016-Feb-10 21:33N 46°30' W 001°47'0 0.0
2016-Feb-10 20:33N 46°30' W 001°47'0 0.0
2016-Feb-10 19:34N 46°30' W 001°47'0 0.0
2016-Feb-10 18:34N 46°30' W 001°47'0 0.0
2016-Feb-10 17:34N 46°30' W 001°47'0 0.0
2016-Feb-10 16:33N 46°30' W 001°47'0 0.0
2016-Feb-10 15:33N 46°30' W 001°47'0 0.0
2016-Feb-10 14:34N 46°30' W 001°47'0 0.0
2016-Feb-10 13:34N 46°30' W 001°47'0 0.0
2016-Feb-10 12:33N 46°30' W 001°47'0 0.0
2016-Feb-10 11:34N 46°30' W 001°47'0 0.0
2016-Feb-10 10:33N 46°30' W 001°47'0 0.0
2016-Feb-10 09:33N 46°30' W 001°47'0 0.0
2016-Feb-10 08:34N 46°30' W 001°47'0 0.0
2016-Feb-10 07:33N 46°30' W 001°47'0 0.0
2016-Feb-10 06:34N 46°30' W 001°47'0 0.0
2016-Feb-10 05:33N 46°30' W 001°47'0 0.0
2016-Feb-10 04:34N 46°30' W 001°47'0 0.0
2016-Feb-10 03:34N 46°30' W 001°47'0 0.0
2016-Feb-10 02:34N 46°30' W 001°47'0 0.0
2016-Feb-10 01:34N 46°30' W 001°47'0 0.0
2016-Feb-10 00:34N 46°30' W 001°47'0 0.0
2016-Feb-09 23:34N 46°30' W 001°47'0 0.0
2016-Feb-09 22:34N 46°30' W 001°47'0 0.0
2016-Feb-09 21:33N 46°30' W 001°47'0 0.0
2016-Feb-09 20:34N 46°30' W 001°47'0 0.0
2016-Feb-09 19:34N 46°30' W 001°47'0 0.0
2016-Feb-09 18:34N 46°30' W 001°47'0 0.0
2016-Feb-09 17:33N 46°30' W 001°47'0 0.0
2016-Feb-09 16:34N 46°30' W 001°47'0 0.0
2016-Feb-09 15:33N 46°30' W 001°47'0 0.0
2016-Feb-09 14:34N 46°30' W 001°47'0 0.1
2016-Feb-09 13:34N 46°30' W 001°47'0 0.1
2016-Feb-09 12:34N 46°30' W 001°47'0 0.0
2016-Feb-09 11:33N 46°30' W 001°47'0 0.0
2016-Feb-09 10:34N 46°30' W 001°47'0 0.0
2016-Feb-09 09:34N 46°30' W 001°47'0 0.0
2016-Feb-09 08:33N 46°30' W 001°47'0 0.0
2016-Feb-09 07:34N 46°30' W 001°47'0 0.0
2016-Feb-09 06:34N 46°30' W 001°47'0 0.0
2016-Feb-09 05:33N 46°30' W 001°47'0 0.0
2016-Feb-09 04:34N 46°30' W 001°47'0 0.0
2016-Feb-09 03:34N 46°30' W 001°47'0 0.0
2016-Feb-09 02:34N 46°30' W 001°47'0 0.0
2016-Feb-09 01:34N 46°30' W 001°47'0 0.0
2016-Feb-09 00:33N 46°30' W 001°47'0 0.0
2016-Feb-08 23:33N 46°30' W 001°47'0 0.0
2016-Feb-08 22:34N 46°30' W 001°47'0 0.0
2016-Feb-08 21:34N 46°30' W 001°47'0 0.0
2016-Feb-08 20:33N 46°30' W 001°47'0 0.0
2016-Feb-08 19:34N 46°30' W 001°47'0 0.0
2016-Feb-08 18:33N 46°30' W 001°47'0 0.0
2016-Feb-08 17:34N 46°30' W 001°47'0 0.0
2016-Feb-08 16:33N 46°30' W 001°47'0 0.0
2016-Feb-08 15:34N 46°30' W 001°47'0 0.0
2016-Feb-08 14:33N 46°30' W 001°47'0 0.0
2016-Feb-08 13:34N 46°30' W 001°47'0 0.0
2016-Feb-08 12:34N 46°30' W 001°47'0 0.0
2016-Feb-08 11:34N 46°30' W 001°47'0 0.0
2016-Feb-08 10:33N 46°30' W 001°47'0 0.0
2016-Feb-08 09:33N 46°30' W 001°47'0 0.0
2016-Feb-08 08:34N 46°30' W 001°47'0 0.0
2016-Feb-08 07:34N 46°30' W 001°47'0 0.0
2016-Feb-06 20:34N 46°30' W 001°47'0 0.0
2016-Feb-06 19:33N 46°30' W 001°47'0 0.0
2016-Feb-06 18:34N 46°30' W 001°47'0 0.0
2016-Feb-06 17:34N 46°30' W 001°47'0 0.0
2016-Feb-06 16:33N 46°30' W 001°47'0 0.0
2016-Feb-06 15:33N 46°30' W 001°47'0 0.0
2016-Feb-06 14:34N 46°30' W 001°47'0 0.0
2016-Feb-06 13:33N 46°30' W 001°47'0 0.0
2016-Feb-06 12:34N 46°30' W 001°47'0 0.0
2016-Feb-06 11:34N 46°30' W 001°47'0 0.0
2016-Feb-06 10:33N 46°30' W 001°47'0 0.0
2016-Feb-06 09:33N 46°30' W 001°47'0 0.0
2016-Feb-06 08:33N 46°30' W 001°47'0 0.0
2016-Feb-06 07:34N 46°30' W 001°47'0 0.0
2016-Feb-06 06:34N 46°30' W 001°47'0 0.0
2016-Feb-06 05:34N 46°30' W 001°47'0 0.0
2016-Feb-06 04:34N 46°30' W 001°47'0 0.0
2016-Feb-06 03:34N 46°30' W 001°47'0 0.0
2016-Feb-06 02:33N 46°30' W 001°47'0 0.0
2016-Feb-06 01:33N 46°30' W 001°47'0 0.0
2016-Feb-06 00:34N 46°30' W 001°47'0 0.0
2016-Feb-05 23:34N 46°30' W 001°47'0 0.0
2016-Feb-05 22:34N 46°30' W 001°47'0 0.0
2016-Feb-05 21:33N 46°30' W 001°47'0 0.0
2016-Feb-05 20:33N 46°30' W 001°47'0 0.0
2016-Feb-05 19:33N 46°30' W 001°47'0 0.0
2016-Feb-05 18:34N 46°30' W 001°47'0 0.0
2016-Feb-05 17:34N 46°30' W 001°47'0 0.2
2016-Feb-05 16:33N 46°30' W 001°48'3 3.1
2016-Feb-05 15:34N 46°27' W 001°50'6 5.6
2016-Feb-05 14:34N 46°24' W 001°57'6 5.8
2016-Feb-05 13:30N 46°20' W 002°04'6 0.8
2016-Feb-05 05:33N 46°20' W 001°55'9 8.9
2016-Feb-05 04:34N 46°27' W 001°48'3 2.6
2016-Feb-05 03:33N 46°30' W 001°48'0 0.0
2016-Feb-05 02:34N 46°30' W 001°48'0 0.0
2016-Feb-05 01:34N 46°30' W 001°48'0 0.0
2016-Feb-05 00:33N 46°30' W 001°48'0 0.0
2016-Feb-04 23:34N 46°30' W 001°48'0 0.0
2016-Feb-04 22:34N 46°30' W 001°48'0 0.0
2016-Feb-04 21:33N 46°30' W 001°48'0 0.0
2016-Feb-04 20:34N 46°30' W 001°48'0 0.0
2016-Feb-04 19:33N 46°30' W 001°48'0 0.0
2016-Feb-04 18:33N 46°30' W 001°48'0 0.0
2016-Feb-04 17:34N 46°30' W 001°48'0 0.0
2016-Feb-04 16:34N 46°30' W 001°48'0 0.0
2016-Feb-04 15:33N 46°30' W 001°48'18 5.6
2016-Feb-04 12:23N 46°31' W 002°14'1 1.1
2016-Feb-04 11:33N 46°32' W 002°15'3 0.5
2016-Feb-04 06:33N 46°34' W 002°13'8 8.2
2016-Feb-04 05:33N 46°32' W 002°02'8 8.2
2016-Feb-04 04:33N 46°29' W 001°51'3 2.5
2016-Feb-04 03:33N 46°30' W 001°47'0 0.0
2016-Feb-04 02:33N 46°30' W 001°47'0 0.0
2016-Feb-04 01:33N 46°30' W 001°47'0 0.0
2016-Feb-04 00:33N 46°30' W 001°47'0 0.0
2016-Feb-03 23:33N 46°30' W 001°47'0 0.0
2016-Feb-03 22:33N 46°30' W 001°47'0 0.0
2016-Feb-03 21:33N 46°30' W 001°47'0 0.0
2016-Feb-03 20:33N 46°30' W 001°47'0 0.0
2016-Feb-03 19:33N 46°30' W 001°47'0 0.0
2016-Feb-03 18:33N 46°30' W 001°47'2 1.5
2016-Feb-03 17:33N 46°28' W 001°48'9 8.9
2016-Feb-03 16:33N 46°28' W 002°01'6 6.1
2016-Feb-03 15:33N 46°28' W 002°10'0 0.3
2016-Feb-03 14:33N 46°28' W 002°10'2 0.3
2016-Feb-03 06:33N 46°27' W 002°13'8 7.7
2016-Feb-03 05:33N 46°28' W 002°02'8 8.0
2016-Feb-03 04:33N 46°28' W 001°50'2 2.4
2016-Feb-03 03:33N 46°30' W 001°48'0 0.0
2016-Feb-03 02:33N 46°30' W 001°48'0 0.0
2016-Feb-03 01:33N 46°30' W 001°48'0 0.0
2016-Feb-03 00:33N 46°30' W 001°48'0 0.0
2016-Feb-02 23:33N 46°30' W 001°48'0 0.0
2016-Feb-02 22:33N 46°30' W 001°48'0 0.0
2016-Feb-02 21:33N 46°30' W 001°48'0 0.0
2016-Feb-02 20:33N 46°30' W 001°48'0 0.0
2016-Feb-02 19:33N 46°30' W 001°48'0 0.0
2016-Feb-02 18:33N 46°30' W 001°48'0 0.0
2016-Feb-02 17:33N 46°30' W 001°48'2 1.8
2016-Feb-02 16:33N 46°28' W 001°48'8 8.3
2016-Feb-02 15:33N 46°24' W 001°58'8 8.2
2016-Feb-02 14:33N 46°20' W 002°09'5 4.4
2016-Feb-02 13:29N 46°17' W 002°15'5 0.6
2016-Feb-02 05:33N 46°19' W 002°08'8 8.0
2016-Feb-02 04:33N 46°23' W 001°58'8 8.2
2016-Feb-02 03:33N 46°28' W 001°48'2 2.1
2016-Feb-02 02:33N 46°30' W 001°48'0 0.0
2016-Feb-01 21:14N 46°30' W 001°48'  

Dump ship's entire track history